Time;durP1;ratioP1;P1;durP2;ratioP2;P2;SDS_P1;SDS_P2;PMS_P1;PMS_P2;Temp;Humidity;BMP_temperature;BMP_pressure;BME280_temperature;BME280_humidity;BME280_pressure;Samples;Min_cycle;Max_cycle;Signal;HPM_P1;HPM_P2
2022/03/13 00:01:37;;;;;;;19.20;7.85;;;;;;;;;;5040305;28;20536;-69
2022/03/13 00:04:05;;;;;;;20.75;8.25;;;;;;;;;;5063598;28;20584;-70
2022/03/13 00:06:32;;;;;;;23.20;8.40;;;;;;;;;;5048145;28;20539;-68
2022/03/13 00:09:00;;;;;;;21.00;7.90;;;;;;;;;;5047586;28;20042;-70
2022/03/13 00:11:29;;;;;;;25.13;8.00;;;;;;;;;;5049429;28;20049;-70
2022/03/13 00:13:57;;;;;;;25.98;9.35;;;;;;;;;;5070408;28;20504;-71
2022/03/13 00:16:25;;;;;;;30.10;12.18;;;;;;;;;;5046249;28;20048;-68
2022/03/13 00:18:53;;;;;;;26.50;15.13;;;;;;;;;;5045647;28;20991;-70
2022/03/13 00:21:20;;;;;;;18.75;10.88;;;;;;;;;;5063943;28;20045;-70
2022/03/13 00:23:49;;;;;;;8.15;6.30;;;;;;;;;;5046660;28;20722;-71
2022/03/13 00:26:17;;;;;;;6.03;5.07;;;;;;;;;;5035239;28;20126;-70
2022/03/13 00:28:45;;;;;;;5.90;5.10;;;;;;;;;;5063938;28;20076;-71
2022/03/13 00:31:12;;;;;;;6.55;4.85;;;;;;;;;;5062281;28;20039;-70
2022/03/13 00:33:40;;;;;;;5.53;4.80;;;;;;;;;;5065879;28;20044;-71
2022/03/13 00:36:08;;;;;;;5.70;4.18;;;;;;;;;;5063658;28;20040;-68
2022/03/13 00:38:35;;;;;;;6.57;4.03;;;;;;;;;;5060382;28;20098;-70
2022/03/13 00:41:04;;;;;;;4.55;3.70;;;;;;;;;;5063585;28;20046;-68
2022/03/13 00:43:32;;;;;;;5.90;4.13;;;;;;;;;;5056410;28;20160;-72
2022/03/13 00:45:59;;;;;;;4.28;3.60;;;;;;;;;;5054716;28;20059;-71
2022/03/13 00:48:28;;;;;;;5.47;3.80;;;;;;;;;;5055075;28;20131;-71
2022/03/13 00:50:59;;;;;;;4.80;3.80;;;;;;;;;;5037491;28;20041;-68
2022/03/13 00:53:26;;;;;;;9.18;4.50;;;;;;;;;;5035781;28;20041;-71
2022/03/13 00:55:54;;;;;;;8.15;4.60;;;;;;;;;;5048362;28;20128;-70
2022/03/13 00:58:21;;;;;;;5.35;4.05;;;;;;;;;;5046532;28;20528;-71
2022/03/13 01:00:49;;;;;;;6.10;4.10;;;;;;;;;;5046918;28;20091;-70
2022/03/13 01:03:29;;;;;;;6.75;4.35;;;;;;;;;;5047360;28;20156;-71
2022/03/13 01:05:57;;;;;;;4.40;3.70;;;;;;;;;;5052966;28;20075;-70
2022/03/13 01:08:24;;;;;;;4.90;3.75;;;;;;;;;;5061392;28;20045;-68
2022/03/13 01:10:52;;;;;;;6.57;4.07;;;;;;;;;;5052012;28;20044;-71
2022/03/13 01:13:20;;;;;;;8.95;5.07;;;;;;;;;;5053778;28;20421;-71
2022/03/13 01:15:55;;;;;;;8.10;5.03;;;;;;;;;;5047414;28;20047;-71
2022/03/13 01:18:22;;;;;;;7.75;4.78;;;;;;;;;;5033820;28;20052;-70
2022/03/13 01:20:50;;;;;;;7.30;4.75;;;;;;;;;;5051286;28;20047;-71
2022/03/13 01:23:17;;;;;;;9.43;4.65;;;;;;;;;;5051070;28;20037;-70
2022/03/13 01:25:45;;;;;;;11.00;5.65;;;;;;;;;;5050259;28;20037;-71
2022/03/13 01:28:12;;;;;;;14.00;5.88;;;;;;;;;;5050811;28;20102;-71
2022/03/13 01:30:40;;;;;;;13.38;5.22;;;;;;;;;;5050810;28;20048;-71
2022/03/13 01:33:07;;;;;;;8.63;4.70;;;;;;;;;;5049683;28;20135;-71
2022/03/13 01:35:35;;;;;;;11.57;5.50;;;;;;;;;;5055234;28;20501;-70
2022/03/13 01:38:03;;;;;;;10.70;4.97;;;;;;;;;;5049009;28;20041;-71
2022/03/13 01:40:30;;;;;;;11.88;6.30;;;;;;;;;;5068737;28;20094;-71
2022/03/13 01:42:58;;;;;;;14.63;7.20;;;;;;;;;;5017538;28;20461;-70
2022/03/13 01:45:26;;;;;;;19.88;8.15;;;;;;;;;;5028979;28;20133;-69
2022/03/13 01:47:54;;;;;;;13.75;6.15;;;;;;;;;;5034551;28;20115;-71
2022/03/13 01:50:21;;;;;;;9.85;4.80;;;;;;;;;;5062103;28;20035;-71
2022/03/13 01:52:49;;;;;;;13.27;6.32;;;;;;;;;;5049833;28;20033;-70
2022/03/13 01:55:17;;;;;;;15.15;6.30;;;;;;;;;;5065933;28;20094;-71
2022/03/13 01:57:47;;;;;;;8.85;5.38;;;;;;;;;;5057258;28;20132;-71
2022/03/13 02:00:15;;;;;;;9.93;5.00;;;;;;;;;;5049020;28;20094;-71
2022/03/13 02:02:46;;;;;;;12.05;5.75;;;;;;;;;;5043742;28;20051;-71
2022/03/13 02:05:28;;;;;;;8.13;5.20;;;;;;;;;;5066477;28;20502;-71
2022/03/13 02:07:56;;;;;;;14.82;7.82;;;;;;;;;;5044062;28;20569;-71
2022/03/13 02:10:25;;;;;;;10.93;5.82;;;;;;;;;;5043654;28;20283;-69
2022/03/13 02:12:55;;;;;;;8.32;4.95;;;;;;;;;;5066963;28;20417;-69
2022/03/13 02:15:22;;;;;;;6.90;4.70;;;;;;;;;;5049585;28;20405;-67
2022/03/13 02:17:51;;;;;;;7.50;4.55;;;;;;;;;;5057712;28;20033;-72
2022/03/13 02:20:22;;;;;;;9.77;4.95;;;;;;;;;;5069092;28;20040;-71
2022/03/13 02:22:52;;;;;;;9.10;5.47;;;;;;;;;;5016878;28;20388;-71
2022/03/13 02:25:22;;;;;;;7.25;4.70;;;;;;;;;;5054512;28;20028;-71
2022/03/13 02:27:50;;;;;;;7.78;4.68;;;;;;;;;;5053650;28;20395;-70
2022/03/13 02:30:22;;;;;;;6.78;4.18;;;;;;;;;;5051010;28;20115;-72
2022/03/13 02:32:50;;;;;;;7.60;5.80;;;;;;;;;;5052447;28;20120;-72
2022/03/13 02:35:17;;;;;;;7.40;5.15;;;;;;;;;;5049963;28;20037;-72
2022/03/13 02:37:45;;;;;;;8.32;6.40;;;;;;;;;;5032176;28;20041;-70
2022/03/13 02:40:18;;;;;;;6.80;4.70;;;;;;;;;;5058728;28;20517;-72
2022/03/13 02:42:45;;;;;;;6.60;4.43;;;;;;;;;;5049514;28;20041;-69
2022/03/13 02:45:22;;;;;;;8.35;4.88;;;;;;;;;;5048644;28;20064;-72
2022/03/13 02:47:50;;;;;;;5.03;4.20;;;;;;;;;;5049916;28;20049;-70
2022/03/13 02:50:18;;;;;;;7.85;5.70;;;;;;;;;;5049198;28;20052;-72
2022/03/13 02:52:45;;;;;;;8.82;6.38;;;;;;;;;;5049778;28;20040;-70
2022/03/13 02:55:12;;;;;;;8.80;5.40;;;;;;;;;;5048853;28;20588;-72
2022/03/13 02:57:40;;;;;;;7.10;4.75;;;;;;;;;;5032439;28;20037;-71
2022/03/13 03:00:08;;;;;;;8.88;4.20;;;;;;;;;;5049397;28;20048;-72
2022/03/13 03:02:36;;;;;;;7.35;5.63;;;;;;;;;;5051806;28;20078;-72
2022/03/13 03:05:04;;;;;;;5.65;4.50;;;;;;;;;;5068483;28;20117;-70
2022/03/13 03:07:32;;;;;;;16.13;9.65;;;;;;;;;;5069206;28;20502;-72
2022/03/13 03:09:59;;;;;;;8.07;5.60;;;;;;;;;;5033615;28;20041;-69
2022/03/13 03:12:27;;;;;;;6.70;4.78;;;;;;;;;;5066555;28;20041;-71
2022/03/13 03:14:55;;;;;;;7.80;5.13;;;;;;;;;;5048736;28;20132;-70
2022/03/13 03:17:22;;;;;;;5.18;4.53;;;;;;;;;;5067714;28;20040;-70
2022/03/13 03:19:51;;;;;;;5.85;4.47;;;;;;;;;;5059386;28;20052;-70
2022/03/13 03:22:18;;;;;;;7.55;5.07;;;;;;;;;;5049750;28;20068;-70
2022/03/13 03:24:48;;;;;;;6.18;4.05;;;;;;;;;;5030687;28;20124;-68
2022/03/13 03:27:18;;;;;;;5.30;3.92;;;;;;;;;;5033660;28;20040;-71
2022/03/13 03:29:45;;;;;;;5.60;4.50;;;;;;;;;;5068370;28;20079;-72
2022/03/13 03:32:13;;;;;;;4.38;3.97;;;;;;;;;;5051613;28;20116;-70
2022/03/13 03:34:40;;;;;;;5.50;4.70;;;;;;;;;;5048043;28;20052;-69
2022/03/13 03:37:07;;;;;;;6.53;5.30;;;;;;;;;;5049070;28;20071;-70
2022/03/13 03:39:35;;;;;;;7.85;5.38;;;;;;;;;;5049943;28;20573;-71
2022/03/13 03:42:02;;;;;;;4.80;4.30;;;;;;;;;;5064764;28;20062;-71
2022/03/13 03:44:30;;;;;;;7.15;5.22;;;;;;;;;;5068848;28;20041;-70
2022/03/13 03:46:57;;;;;;;6.82;4.68;;;;;;;;;;5065552;28;20043;-71
2022/03/13 03:49:25;;;;;;;5.68;4.25;;;;;;;;;;5134790;22;20067;-69
2022/03/13 03:51:52;;;;;;;4.25;3.80;;;;;;;;;;5051686;28;20123;-69
2022/03/13 03:54:20;;;;;;;5.05;3.70;;;;;;;;;;5048980;28;20047;-68
2022/03/13 03:56:47;;;;;;;4.20;3.50;;;;;;;;;;5032463;28;20043;-70
2022/03/13 03:59:14;;;;;;;4.90;3.90;;;;;;;;;;5037496;28;20037;-70
2022/03/13 04:01:42;;;;;;;6.13;3.97;;;;;;;;;;5009755;28;20045;-69
2022/03/13 04:04:16;;;;;;;6.00;3.97;;;;;;;;;;5013701;28;20033;-68
2022/03/13 04:06:43;;;;;;;4.88;3.80;;;;;;;;;;5029637;28;20436;-70
2022/03/13 04:09:11;;;;;;;5.30;3.92;;;;;;;;;;5029945;28;20072;-70
2022/03/13 04:11:40;;;;;;;4.97;3.85;;;;;;;;;;5027667;28;20052;-71
2022/03/13 04:14:10;;;;;;;4.85;3.63;;;;;;;;;;5028885;28;20200;-69
2022/03/13 04:16:38;;;;;;;4.38;3.88;;;;;;;;;;5028435;28;20053;-69
2022/03/13 04:19:05;;;;;;;5.75;3.78;;;;;;;;;;5029273;28;20052;-70
2022/03/13 04:21:34;;;;;;;4.95;3.92;;;;;;;;;;5040808;28;20391;-70
2022/03/13 04:24:01;;;;;;;4.63;3.78;;;;;;;;;;5048586;28;20554;-70
2022/03/13 04:26:29;;;;;;;5.53;4.05;;;;;;;;;;5048735;28;20475;-70
2022/03/13 04:28:56;;;;;;;6.05;3.80;;;;;;;;;;5048879;28;20059;-70
2022/03/13 04:31:24;;;;;;;3.90;3.53;;;;;;;;;;5048590;28;20056;-70
2022/03/13 04:33:52;;;;;;;4.70;4.00;;;;;;;;;;5048829;28;20049;-70
2022/03/13 04:36:21;;;;;;;4.85;3.90;;;;;;;;;;5029859;28;20037;-68
2022/03/13 04:38:49;;;;;;;4.45;3.58;;;;;;;;;;5039221;28;20453;-69
2022/03/13 04:41:16;;;;;;;5.88;4.35;;;;;;;;;;5037260;28;20040;-69
2022/03/13 04:43:45;;;;;;;4.32;3.75;;;;;;;;;;5029239;28;20037;-70
2022/03/13 04:46:15;;;;;;;5.60;4.05;;;;;;;;;;5043353;28;20041;-69
2022/03/13 04:48:42;;;;;;;4.60;3.40;;;;;;;;;;5028914;28;20107;-70
2022/03/13 04:51:10;;;;;;;6.88;4.72;;;;;;;;;;5037062;28;20410;-69
2022/03/13 04:53:37;;;;;;;6.07;4.00;;;;;;;;;;5049162;28;20498;-70
2022/03/13 04:56:05;;;;;;;4.03;3.55;;;;;;;;;;5040249;28;20049;-69
2022/03/13 04:58:32;;;;;;;4.82;3.83;;;;;;;;;;5028604;28;20075;-70
2022/03/13 05:01:00;;;;;;;6.32;4.13;;;;;;;;;;5018880;28;20490;-69
2022/03/13 05:03:27;;;;;;;4.72;3.42;;;;;;;;;;5048023;28;20056;-69
2022/03/13 05:05:55;;;;;;;5.53;4.13;;;;;;;;;;5040569;28;20116;-68
2022/03/13 05:08:23;;;;;;;5.43;3.95;;;;;;;;;;5030286;28;20044;-70
2022/03/13 05:10:51;;;;;;;5.63;4.13;;;;;;;;;;5033340;28;20159;-70
2022/03/13 05:13:19;;;;;;;6.35;4.63;;;;;;;;;;5048333;28;20049;-70
2022/03/13 05:15:47;;;;;;;5.32;4.00;;;;;;;;;;5047164;28;20041;-68
2022/03/13 05:18:14;;;;;;;4.43;3.40;;;;;;;;;;5043587;28;20037;-70
2022/03/13 05:20:42;;;;;;;5.60;3.58;;;;;;;;;;5032220;28;20040;-70
2022/03/13 05:23:10;;;;;;;5.07;3.60;;;;;;;;;;5048291;28;20044;-67
2022/03/13 05:25:38;;;;;;;8.23;4.25;;;;;;;;;;5033450;28;20038;-70
2022/03/13 05:28:06;;;;;;;4.47;3.95;;;;;;;;;;5038408;28;20513;-70
2022/03/13 05:30:33;;;;;;;5.32;3.90;;;;;;;;;;5027923;28;20041;-70
2022/03/13 05:33:01;;;;;;;6.47;4.30;;;;;;;;;;5038214;28;20514;-69
2022/03/13 05:35:28;;;;;;;6.55;3.92;;;;;;;;;;5043891;28;20064;-70
2022/03/13 05:37:55;;;;;;;5.80;4.50;;;;;;;;;;5010773;28;20478;-70
2022/03/13 05:40:24;;;;;;;6.45;4.35;;;;;;;;;;5009783;28;20042;-70
2022/03/13 05:42:54;;;;;;;7.43;4.57;;;;;;;;;;5037251;28;20045;-70
2022/03/13 05:45:22;;;;;;;4.60;4.00;;;;;;;;;;5044686;28;20041;-67
2022/03/13 05:47:50;;;;;;;7.60;4.57;;;;;;;;;;5027131;28;20052;-70
2022/03/13 05:50:18;;;;;;;9.10;4.30;;;;;;;;;;5046952;28;20037;-68
2022/03/13 05:52:46;;;;;;;6.18;4.18;;;;;;;;;;5048460;28;20099;-70
2022/03/13 05:55:14;;;;;;;5.75;4.40;;;;;;;;;;5046810;28;20037;-70
2022/03/13 05:57:42;;;;;;;6.80;4.43;;;;;;;;;;5048830;28;20043;-71
2022/03/13 06:00:11;;;;;;;8.15;3.85;;;;;;;;;;5050397;28;20052;-67
2022/03/13 06:02:46;;;;;;;5.45;4.35;;;;;;;;;;5051763;28;20737;-67
2022/03/13 06:05:15;;;;;;;8.10;6.43;;;;;;;;;;5049698;28;20040;-70
2022/03/13 06:07:43;;;;;;;5.80;4.80;;;;;;;;;;5013942;28;20725;-69
2022/03/13 06:10:16;;;;;;;9.02;5.15;;;;;;;;;;5050058;28;20491;-70
2022/03/13 06:12:44;;;;;;;8.07;5.53;;;;;;;;;;5050598;28;20087;-70
2022/03/13 06:15:12;;;;;;;6.10;4.78;;;;;;;;;;5049617;28;20045;-68
2022/03/13 06:17:42;;;;;;;6.78;5.07;;;;;;;;;;5050505;28;20048;-69
2022/03/13 06:20:10;;;;;;;8.48;5.80;;;;;;;;;;5050468;28;20072;-68
2022/03/13 06:22:39;;;;;;;8.10;6.30;;;;;;;;;;5049858;28;20052;-68
2022/03/13 06:25:11;;;;;;;13.32;6.53;;;;;;;;;;5048486;28;20506;-70
2022/03/13 06:27:39;;;;;;;8.20;5.53;;;;;;;;;;5049743;28;20033;-69
2022/03/13 06:30:13;;;;;;;8.77;7.05;;;;;;;;;;5049474;28;20068;-67
2022/03/13 06:32:42;;;;;;;11.63;8.25;;;;;;;;;;5046311;28;20053;-68
2022/03/13 06:35:09;;;;;;;10.55;7.10;;;;;;;;;;5048133;28;20525;-67
2022/03/13 06:37:38;;;;;;;9.77;6.68;;;;;;;;;;5046717;28;20033;-68
2022/03/13 06:40:10;;;;;;;9.95;6.80;;;;;;;;;;5049497;28;20581;-65
2022/03/13 06:42:38;;;;;;;8.95;6.22;;;;;;;;;;5046561;28;20507;-69
2022/03/13 06:45:09;;;;;;;8.77;5.60;;;;;;;;;;5047721;28;20536;-68
2022/03/13 06:47:36;;;;;;;8.15;6.38;;;;;;;;;;5046855;28;20052;-69
2022/03/13 06:50:04;;;;;;;9.02;7.07;;;;;;;;;;5047672;28;20395;-68
2022/03/13 06:52:31;;;;;;;14.93;6.75;;;;;;;;;;5030541;28;20029;-65
2022/03/13 06:54:59;;;;;;;8.52;5.10;;;;;;;;;;5046956;28;20045;-67
2022/03/13 06:57:28;;;;;;;7.35;6.00;;;;;;;;;;5048782;28;20045;-68
2022/03/13 06:59:57;;;;;;;9.73;6.22;;;;;;;;;;5048682;28;20037;-69
2022/03/13 07:02:25;;;;;;;10.02;7.00;;;;;;;;;;5030420;28;20052;-68
2022/03/13 07:04:52;;;;;;;9.60;7.65;;;;;;;;;;5047187;28;20041;-68
2022/03/13 07:07:20;;;;;;;7.28;6.35;;;;;;;;;;5048032;28;20037;-66
2022/03/13 07:09:47;;;;;;;7.75;6.18;;;;;;;;;;5030215;28;20132;-66
2022/03/13 07:12:15;;;;;;;8.50;6.05;;;;;;;;;;5048636;28;20033;-68
2022/03/13 07:14:46;;;;;;;7.18;5.68;;;;;;;;;;5048202;28;20048;-65
2022/03/13 07:17:15;;;;;;;9.48;5.75;;;;;;;;;;5047803;28;20040;-69
2022/03/13 07:19:43;;;;;;;7.35;6.20;;;;;;;;;;5048344;28;20041;-68
2022/03/13 07:22:12;;;;;;;7.32;5.40;;;;;;;;;;5047903;28;20041;-69
2022/03/13 07:24:40;;;;;;;5.90;5.00;;;;;;;;;;5029835;28;20541;-68
2022/03/13 07:27:10;;;;;;;7.22;5.43;;;;;;;;;;5046840;28;20029;-67
2022/03/13 07:29:37;;;;;;;7.82;5.90;;;;;;;;;;5047529;28;20041;-69
2022/03/13 07:32:05;;;;;;;8.23;6.20;;;;;;;;;;5046831;28;20064;-69
2022/03/13 07:34:32;;;;;;;8.30;6.72;;;;;;;;;;5047391;28;20041;-69
2022/03/13 07:36:59;;;;;;;10.13;5.85;;;;;;;;;;5047258;28;20037;-68
2022/03/13 07:39:27;;;;;;;8.65;6.15;;;;;;;;;;5046381;28;20048;-68
2022/03/13 07:41:54;;;;;;;9.07;6.60;;;;;;;;;;5028840;28;20363;-66
2022/03/13 07:44:22;;;;;;;8.98;6.47;;;;;;;;;;5046796;28;20033;-69
2022/03/13 07:46:51;;;;;;;9.02;6.78;;;;;;;;;;5027096;28;20575;-69
2022/03/13 07:49:18;;;;;;;9.35;6.80;;;;;;;;;;5047365;28;20048;-69
2022/03/13 07:51:46;;;;;;;8.73;6.93;;;;;;;;;;5028478;28;20507;-67
2022/03/13 07:54:14;;;;;;;9.00;6.60;;;;;;;;;;5026914;28;20033;-67
2022/03/13 07:56:42;;;;;;;10.27;7.10;;;;;;;;;;5035028;28;20052;-67
2022/03/13 07:59:10;;;;;;;10.82;6.78;;;;;;;;;;5044472;28;20048;-68
2022/03/13 08:01:37;;;;;;;7.93;5.88;;;;;;;;;;5027715;28;20029;-66
2022/03/13 08:04:06;;;;;;;10.65;7.05;;;;;;;;;;5035459;28;20410;-66
2022/03/13 08:06:39;;;;;;;9.15;7.15;;;;;;;;;;5044163;28;20033;-66
2022/03/13 08:09:07;;;;;;;10.40;7.47;;;;;;;;;;5034700;28;20402;-68
2022/03/13 08:11:35;;;;;;;9.45;7.20;;;;;;;;;;5041808;28;20044;-66
2022/03/13 08:14:03;;;;;;;9.57;6.85;;;;;;;;;;5012491;28;20045;-68
2022/03/13 08:16:31;;;;;;;7.93;6.10;;;;;;;;;;5036605;28;20095;-68
2022/03/13 08:18:58;;;;;;;8.20;5.78;;;;;;;;;;5039386;28;20076;-68
2022/03/13 08:21:26;;;;;;;9.95;6.35;;;;;;;;;;5043995;28;20449;-66
2022/03/13 08:23:55;;;;;;;13.02;6.75;;;;;;;;;;5047299;28;20491;-67
2022/03/13 08:26:22;;;;;;;6.85;5.13;;;;;;;;;;5043960;28;20517;-67
2022/03/13 08:28:50;;;;;;;8.10;5.97;;;;;;;;;;5048199;28;20104;-67
2022/03/13 08:31:17;;;;;;;9.38;6.00;;;;;;;;;;5039766;28;20040;-68
2022/03/13 08:33:45;;;;;;;7.35;5.70;;;;;;;;;;5030255;28;20038;-65
2022/03/13 08:36:13;;;;;;;6.60;5.55;;;;;;;;;;5018925;28;20071;-68
2022/03/13 08:38:41;;;;;;;11.45;5.97;;;;;;;;;;5048373;28;20068;-66
2022/03/13 08:41:08;;;;;;;9.98;6.32;;;;;;;;;;5047482;28;20555;-66
2022/03/13 08:43:36;;;;;;;6.70;5.85;;;;;;;;;;5039455;28;20053;-68
2022/03/13 08:46:03;;;;;;;7.20;6.20;;;;;;;;;;5027598;28;20391;-67
2022/03/13 08:48:31;;;;;;;8.52;6.38;;;;;;;;;;5042180;28;20072;-66
2022/03/13 08:50:58;;;;;;;7.40;6.70;;;;;;;;;;5037429;28;20061;-68
2022/03/13 08:53:25;;;;;;;7.95;6.50;;;;;;;;;;5039700;28;20052;-68
2022/03/13 08:55:54;;;;;;;7.35;6.22;;;;;;;;;;5046124;28;20044;-67
2022/03/13 08:58:21;;;;;;;8.05;6.68;;;;;;;;;;5048867;28;20049;-68
2022/03/13 09:00:51;;;;;;;6.38;5.78;;;;;;;;;;5042401;28;20042;-68
2022/03/13 09:03:18;;;;;;;7.97;6.60;;;;;;;;;;5029183;28;20037;-69
2022/03/13 09:05:48;;;;;;;7.32;6.55;;;;;;;;;;5030071;28;20045;-66
2022/03/13 09:08:16;;;;;;;7.90;6.28;;;;;;;;;;5031887;28;20125;-68
2022/03/13 09:10:43;;;;;;;6.60;6.00;;;;;;;;;;5031899;28;20044;-68
2022/03/13 09:13:12;;;;;;;10.95;6.68;;;;;;;;;;5047808;28;20051;-66
2022/03/13 09:15:41;;;;;;;7.32;6.18;;;;;;;;;;5043326;28;20041;-67
2022/03/13 09:18:09;;;;;;;6.95;6.25;;;;;;;;;;5052762;28;20041;-67
2022/03/13 09:20:36;;;;;;;7.93;6.72;;;;;;;;;;5010222;28;20247;-68
2022/03/13 09:23:06;;;;;;;7.53;6.22;;;;;;;;;;5032546;28;20167;-70
2022/03/13 09:25:34;;;;;;;6.32;5.72;;;;;;;;;;5028059;28;20053;-67
2022/03/13 09:28:12;;;;;;;6.95;6.25;;;;;;;;;;5043319;28;20090;-66
2022/03/13 09:30:42;;;;;;;6.57;5.97;;;;;;;;;;5041327;28;20030;-68
2022/03/13 09:33:12;;;;;;;6.70;5.78;;;;;;;;;;5038028;28;20414;-65
2022/03/13 09:35:40;;;;;;;6.47;5.85;;;;;;;;;;5046521;28;20506;-68
2022/03/13 09:38:08;;;;;;;7.88;6.95;;;;;;;;;;5032798;28;20463;-68
2022/03/13 09:40:35;;;;;;;11.38;6.22;;;;;;;;;;5046110;28;20037;-67
2022/03/13 09:43:06;;;;;;;8.75;6.28;;;;;;;;;;5030484;28;20445;-67
2022/03/13 09:45:34;;;;;;;8.45;6.75;;;;;;;;;;5050959;28;20200;-68
2022/03/13 09:48:07;;;;;;;7.72;6.78;;;;;;;;;;5052147;28;20112;-68
2022/03/13 09:50:39;;;;;;;9.52;6.30;;;;;;;;;;5074235;22;20046;-86
2022/03/13 09:53:06;;;;;;;7.82;6.70;;;;;;;;;;5054289;28;20166;-86
2022/03/13 09:55:34;;;;;;;7.53;6.40;;;;;;;;;;5024870;28;20037;-85
2022/03/13 09:58:01;;;;;;;7.90;6.55;;;;;;;;;;5035573;28;20411;-86
2022/03/13 10:00:29;;;;;;;9.10;6.18;;;;;;;;;;5028303;28;20147;-85
2022/03/13 10:02:56;;;;;;;6.97;6.10;;;;;;;;;;5035094;28;20052;-87
2022/03/13 10:05:27;;;;;;;8.07;6.47;;;;;;;;;;5032680;28;20075;-86
2022/03/13 10:07:56;;;;;;;9.93;7.03;;;;;;;;;;5041683;28;20412;-89
2022/03/13 10:10:24;;;;;;;9.30;6.72;;;;;;;;;;5026805;28;20068;-85
2022/03/13 10:12:53;;;;;;;8.55;6.75;;;;;;;;;;5044347;28;20408;-85
2022/03/13 10:15:21;;;;;;;8.02;6.47;;;;;;;;;;5026121;28;20052;-85
2022/03/13 10:17:48;;;;;;;9.18;6.55;;;;;;;;;;5044626;28;20045;-85
2022/03/13 10:20:27;;;;;;;9.73;6.18;;;;;;;;;;5014873;28;20106;-86
2022/03/13 10:23:05;;;;;;;9.70;6.50;;;;;;;;;;5033348;28;20038;-85
2022/03/13 10:25:33;;;;;;;8.73;6.93;;;;;;;;;;5023334;28;20400;-86
2022/03/13 10:28:20;;;;;;;7.45;6.65;;;;;;;;;;5000993;28;20519;-87
2022/03/13 10:30:49;;;;;;;9.00;6.68;;;;;;;;;;5055842;28;20037;-84
2022/03/13 10:33:16;;;;;;;8.82;6.25;;;;;;;;;;5041476;28;20065;-85
2022/03/13 10:35:44;;;;;;;7.78;5.72;;;;;;;;;;5033912;28;20041;-83
2022/03/13 10:38:15;;;;;;;9.25;6.35;;;;;;;;;;5055336;28;20041;-85
2022/03/13 10:40:46;;;;;;;7.10;6.03;;;;;;;;;;5018145;28;20575;-86
2022/03/13 10:43:19;;;;;;;7.15;6.03;;;;;;;;;;5026377;28;20677;-85
2022/03/13 10:45:51;;;;;;;7.20;5.85;;;;;;;;;;5044729;28;20462;-86
2022/03/13 10:48:28;;;;;;;10.07;6.50;;;;;;;;;;5052519;28;20076;-85
2022/03/13 10:50:59;;;;;;;9.32;6.22;;;;;;;;;;5046131;28;20045;-87
2022/03/13 10:53:30;;;;;;;7.35;6.43;;;;;;;;;;4999452;28;20128;-87
2022/03/13 10:56:02;;;;;;;7.10;6.00;;;;;;;;;;5002259;28;20048;-87
2022/03/13 10:58:30;;;;;;;8.10;6.07;;;;;;;;;;5026142;28;20072;-85
2022/03/13 11:01:07;;;;;;;10.02;6.00;;;;;;;;;;5042164;28;20042;-86
2022/03/13 11:03:35;;;;;;;11.35;6.15;;;;;;;;;;5005423;28;20069;-87
2022/03/13 11:06:04;;;;;;;7.55;5.82;;;;;;;;;;5009076;28;20038;-83
2022/03/13 11:08:32;;;;;;;7.22;5.43;;;;;;;;;;5029319;28;20046;-86
2022/03/13 11:11:01;;;;;;;7.70;5.80;;;;;;;;;;5035470;28;20040;-86
2022/03/13 11:13:29;;;;;;;7.32;5.65;;;;;;;;;;5040507;28;20057;-86
2022/03/13 11:15:59;;;;;;;6.30;5.70;;;;;;;;;;5023815;28;20037;-87
2022/03/13 11:18:35;;;;;;;8.30;5.68;;;;;;;;;;5043002;28;20037;-87
2022/03/13 11:21:06;;;;;;;7.18;5.80;;;;;;;;;;5012910;28;20045;-87
2022/03/13 11:23:34;;;;;;;5.75;4.78;;;;;;;;;;5010288;28;20045;-87
2022/03/13 11:26:02;;;;;;;7.80;5.65;;;;;;;;;;5002030;28;20147;-86
2022/03/13 11:28:30;;;;;;;7.72;5.78;;;;;;;;;;5046202;28;20124;-86
2022/03/13 11:30:58;;;;;;;7.82;5.63;;;;;;;;;;5038359;28;20591;-87
2022/03/13 11:33:41;;;;;;;9.88;5.47;;;;;;;;;;5031894;28;20520;-86
2022/03/13 11:36:28;;;;;;;6.30;5.60;;;;;;;;;;5042378;28;20048;-88
2022/03/13 11:38:56;;;;;;;7.80;5.45;;;;;;;;;;5005684;28;20037;-87
2022/03/13 11:41:47;;;;;;;6.57;5.60;;;;;;;;;;5028287;28;20037;-87
2022/03/13 11:44:21;;;;;;;6.25;4.97;;;;;;;;;;5051889;28;20127;-87
2022/03/13 11:46:49;;;;;;;10.38;4.82;;;;;;;;;;5050674;28;20051;-87
2022/03/13 11:49:34;;;;;;;5.63;5.03;;;;;;;;;;5031645;28;20041;-87
2022/03/13 11:52:12;;;;;;;6.75;5.10;;;;;;;;;;5047574;28;20087;-87
2022/03/13 11:55:00;;;;;;;5.50;5.00;;;;;;;;;;5046692;28;20136;-87
2022/03/13 11:57:41;;;;;;;6.43;4.30;;;;;;;;;;5014315;28;20065;-87
2022/03/13 12:00:11;;;;;;;5.10;4.30;;;;;;;;;;5017034;28;20075;-87
2022/03/13 12:02:44;;;;;;;6.20;4.57;;;;;;;;;;5021246;28;20045;-87
2022/03/13 12:05:26;;;;;;;4.70;4.30;;;;;;;;;;5023898;28;20047;-88
2022/03/13 12:07:59;;;;;;;6.20;4.50;;;;;;;;;;5031918;28;20045;-87
2022/03/13 12:10:39;;;;;;;7.28;4.45;;;;;;;;;;5000371;28;20076;-89
2022/03/13 12:13:13;;;;;;;4.20;3.80;;;;;;;;;;5027194;28;20045;-85
2022/03/13 12:15:41;;;;;;;4.20;3.80;;;;;;;;;;5019199;28;20041;-86
2022/03/13 12:18:21;;;;;;;4.68;3.80;;;;;;;;;;5042732;28;20115;-87
2022/03/13 12:20:53;;;;;;;4.15;3.75;;;;;;;;;;5041580;28;20160;-87
2022/03/13 12:23:34;;;;;;;5.90;3.92;;;;;;;;;;5042747;28;20045;-87
2022/03/13 12:26:22;;;;;;;6.00;4.03;;;;;;;;;;5027273;28;20057;-87
2022/03/13 12:28:57;;;;;;;3.72;3.42;;;;;;;;;;4996806;28;20140;-87
2022/03/13 12:31:25;;;;;;;5.90;4.20;;;;;;;;;;5044165;28;20072;-86
2022/03/13 12:34:00;;;;;;;4.28;3.70;;;;;;;;;;5032414;28;20049;-87
2022/03/13 12:36:34;;;;;;;5.20;4.10;;;;;;;;;;5023744;28;20041;-87
2022/03/13 12:39:02;;;;;;;4.80;4.30;;;;;;;;;;5014204;28;20052;-86
2022/03/13 12:41:29;;;;;;;4.10;3.70;;;;;;;;;;5008298;28;20044;-86
2022/03/13 12:44:02;;;;;;;4.55;4.00;;;;;;;;;;5032188;28;20045;-87
2022/03/13 12:46:30;;;;;;;5.38;4.10;;;;;;;;;;5040196;28;20476;-86
2022/03/13 12:48:59;;;;;;;4.38;3.88;;;;;;;;;;5015233;28;20045;-87
2022/03/13 12:51:34;;;;;;;3.97;3.58;;;;;;;;;;5016691;28;20575;-85
2022/03/13 12:54:13;;;;;;;4.85;4.13;;;;;;;;;;5018813;28;20041;-86
2022/03/13 12:56:44;;;;;;;4.28;3.70;;;;;;;;;;5005759;28;20046;-86
2022/03/13 12:59:12;;;;;;;;;;;;;;;;;;5016266;28;20033;-88
2022/03/13 13:01:40;;;;;;;4.15;3.72;;;;;;;;;;5038059;28;21504;-87
2022/03/13 13:04:13;;;;;;;4.30;3.90;;;;;;;;;;5043641;28;20048;-89
2022/03/13 13:06:50;;;;;;;4.63;3.85;;;;;;;;;;4999203;28;20061;-90
2022/03/13 13:09:31;;;;;;;3.50;3.20;;;;;;;;;;5038031;28;20049;-88
2022/03/13 13:12:00;;;;;;;5.18;3.78;;;;;;;;;;5041265;28;20038;-88
2022/03/13 13:14:31;;;;;;;4.32;3.60;;;;;;;;;;5018139;28;20057;-90
2022/03/13 13:16:59;;;;;;;5.35;4.15;;;;;;;;;;5049068;28;20265;-88
2022/03/13 13:19:30;;;;;;;4.07;3.75;;;;;;;;;;5035735;28;20470;-88
2022/03/13 13:22:03;;;;;;;3.45;3.15;;;;;;;;;;5042165;28;20280;-88
2022/03/13 13:24:50;;;;;;;4.45;4.05;;;;;;;;;;5031547;28;20523;-89
2022/03/13 13:27:35;;;;;;;4.50;4.10;;;;;;;;;;5016729;28;20050;-88
2022/03/13 13:30:23;;;;;;;5.03;3.95;;;;;;;;;;5018435;28;20412;-88
2022/03/13 13:32:57;;;;;;;5.50;3.58;;;;;;;;;;4997880;28;20113;-88
2022/03/13 13:35:41;;;;;;;4.38;3.97;;;;;;;;;;5020881;28;20175;-87
2022/03/13 13:38:17;;;;;;;5.28;4.00;;;;;;;;;;5012953;28;20527;-88
2022/03/13 13:41:03;;;;;;;;;;;;;;;;;;;;;
2022/03/13 13:47:52;;;;;;;4.57;3.70;;;;;;;;;;5036368;28;20115;-89
2022/03/13 13:50:48;;;;;;;7.63;3.90;;;;;;;;;;5021219;28;20516;-89
2022/03/13 13:53:20;;;;;;;4.22;3.83;;;;;;;;;;5015912;28;20068;-88
2022/03/13 13:55:53;;;;;;;6.60;3.67;;;;;;;;;;4998254;28;20090;-88
2022/03/13 13:58:28;;;;;;;3.78;3.47;;;;;;;;;;5024043;28;20123;-88
2022/03/13 14:01:37;;;;;;;3.88;3.30;;;;;;;;;;5031484;28;20132;-88
2022/03/13 14:04:50;;;;;;;4.15;3.35;;;;;;;;;;5021636;28;20067;-87
2022/03/13 14:07:24;;;;;;;3.75;3.35;;;;;;;;;;5013404;28;20351;-87
2022/03/13 14:10:08;;;;;;;4.03;3.30;;;;;;;;;;5040994;28;20046;-88
2022/03/13 14:12:47;;;;;;;;;;;;;;;;;;5012048;28;20134;-87
2022/03/13 14:15:33;;;;;;;3.93;3.43;;;;;;;;;;5032100;23;21297;-72
2022/03/13 14:18:01;;;;;;;5.55;3.63;;;;;;;;;;5003240;28;20537;-72
2022/03/13 14:20:28;;;;;;;4.03;3.55;;;;;;;;;;5018613;28;20044;-73
2022/03/13 14:22:56;;;;;;;4.22;3.83;;;;;;;;;;5019311;28;20033;-73
2022/03/13 14:25:23;;;;;;;4.93;3.25;;;;;;;;;;5022649;28;20227;-72
2022/03/13 14:27:54;;;;;;;3.45;3.22;;;;;;;;;;5013104;28;20038;-73
2022/03/13 14:30:21;;;;;;;7.25;3.97;;;;;;;;;;5017431;28;20045;-71
2022/03/13 14:32:49;;;;;;;4.07;3.65;;;;;;;;;;5018306;28;20166;-73
2022/03/13 14:35:18;;;;;;;6.25;3.85;;;;;;;;;;5008702;28;20049;-73
2022/03/13 14:37:45;;;;;;;4.93;3.58;;;;;;;;;;5000495;28;20714;-73
2022/03/13 14:40:33;;;;;;;4.10;3.70;;;;;;;;;;5021234;28;20044;-71
2022/03/13 14:43:00;;;;;;;4.50;3.60;;;;;;;;;;4991878;28;20135;-72
2022/03/13 14:45:27;;;;;;;4.10;3.70;;;;;;;;;;5022286;28;21610;-72
2022/03/13 14:47:55;;;;;;;4.30;3.90;;;;;;;;;;5000903;28;20444;-73
2022/03/13 14:50:43;;;;;;;3.60;3.30;;;;;;;;;;5010942;28;20033;-72
2022/03/13 14:53:16;;;;;;;5.25;4.25;;;;;;;;;;5021307;28;20132;-72
2022/03/13 14:55:45;;;;;;;4.05;3.75;;;;;;;;;;5000745;28;20212;-72
2022/03/13 14:58:13;;;;;;;6.93;4.05;;;;;;;;;;5021296;28;20041;-72
2022/03/13 15:00:41;;;;;;;4.03;3.30;;;;;;;;;;5020690;28;20045;-75
2022/03/13 15:03:09;;;;;;;4.05;3.60;;;;;;;;;;5005140;28;20411;-73
2022/03/13 15:05:37;;;;;;;4.47;4.07;;;;;;;;;;5021034;28;20041;-72